createdAt,value
2019-05-11T00:00:10.014Z,4.93
2019-05-11T00:02:39.433Z,4.73
2019-05-11T00:05:09.103Z,4.67
2019-05-11T00:07:38.515Z,4.57
2019-05-11T00:10:08.360Z,4.50
2019-05-11T00:12:37.758Z,5.17
2019-05-11T00:15:08.309Z,5.00
2019-05-11T00:17:37.718Z,4.77
2019-05-11T00:20:09.010Z,5.30
2019-05-11T00:22:38.393Z,4.80
2019-05-11T00:25:08.650Z,3.73
2019-05-11T00:27:38.111Z,4.40
2019-05-11T00:30:08.120Z,4.37
2019-05-11T00:32:37.630Z,4.67
2019-05-11T00:35:07.730Z,4.70
2019-05-11T00:37:37.158Z,4.97
2019-05-11T00:40:14.375Z,5.20
2019-05-11T00:42:37.956Z,5.70
2019-05-11T00:45:07.814Z,5.60
2019-05-11T00:47:37.207Z,5.03
2019-05-11T00:50:08.359Z,6.00
2019-05-11T00:52:37.862Z,5.40
2019-05-11T00:55:07.600Z,4.40
2019-05-11T00:57:37.022Z,4.57
2019-05-11T01:00:07.977Z,5.27
2019-05-11T01:02:37.379Z,5.50
2019-05-11T01:05:08.642Z,5.40
2019-05-11T01:07:38.039Z,5.00
2019-05-11T01:10:21.736Z,4.37
2019-05-11T01:12:39.222Z,4.63
2019-05-11T01:15:09.161Z,4.27
2019-05-11T01:17:38.580Z,5.03
2019-05-11T01:20:08.408Z,5.07
2019-05-11T01:22:37.832Z,5.80
2019-05-11T01:25:07.569Z,5.90
2019-05-11T01:27:37.013Z,5.23
2019-05-11T01:30:07.557Z,5.30
2019-05-11T01:32:37.005Z,5.57
2019-05-11T01:35:08.398Z,4.93
2019-05-11T01:37:37.809Z,6.13
2019-05-11T01:40:07.854Z,5.60
2019-05-11T01:42:37.257Z,5.90
2019-05-11T01:45:07.391Z,5.83
2019-05-11T01:47:36.805Z,6.60
2019-05-11T01:50:06.695Z,6.30
2019-05-11T01:52:36.111Z,5.60
2019-05-11T01:55:05.580Z,5.80
2019-05-11T01:57:35.009Z,5.40
2019-05-11T02:00:07.450Z,5.67
2019-05-11T02:02:36.862Z,6.50
2019-05-11T02:05:25.543Z,5.43
2019-05-11T02:07:55.022Z,6.70
2019-05-11T02:10:24.653Z,6.57
2019-05-11T02:12:54.309Z,6.80
2019-05-11T02:15:23.878Z,6.53
2019-05-11T02:17:53.352Z,6.47
2019-05-11T02:20:22.752Z,7.23
2019-05-11T02:22:52.176Z,6.73
2019-05-11T02:25:21.542Z,6.07
2019-05-11T02:27:50.966Z,6.97
2019-05-11T02:30:20.496Z,6.23
2019-05-11T02:32:49.917Z,7.17
2019-05-11T02:35:19.312Z,6.67
2019-05-11T02:37:48.767Z,6.43
2019-05-11T02:40:18.702Z,6.67
2019-05-11T02:42:48.113Z,6.43
2019-05-11T02:45:20.556Z,5.93
2019-05-11T02:47:49.972Z,4.50
2019-05-11T02:50:19.361Z,4.93
2019-05-11T02:52:49.013Z,4.73
2019-05-11T02:55:18.399Z,5.00
2019-05-11T02:57:47.815Z,4.53
2019-05-11T03:00:20.256Z,5.20
2019-05-11T03:02:49.649Z,4.53
2019-05-11T03:05:20.637Z,4.60
2019-05-11T03:07:50.061Z,4.80
2019-05-11T03:10:19.454Z,5.07
2019-05-11T03:12:48.874Z,4.40
2019-05-11T03:15:18.258Z,4.17
2019-05-11T03:17:47.692Z,3.83
2019-05-11T03:20:17.104Z,4.23
2019-05-11T03:22:46.491Z,4.43
2019-05-11T03:25:15.908Z,4.77
2019-05-11T03:27:45.290Z,4.50
2019-05-11T03:30:15.054Z,3.93
2019-05-11T03:32:44.459Z,3.90
2019-05-11T03:35:14.142Z,4.07
2019-05-11T03:37:43.518Z,3.50
2019-05-11T03:40:14.073Z,3.60
2019-05-11T03:42:43.463Z,3.40
2019-05-11T03:45:13.711Z,2.83
2019-05-11T03:47:43.119Z,2.50
2019-05-11T03:50:13.053Z,2.60
2019-05-11T03:52:42.445Z,2.67
2019-05-11T03:55:12.301Z,2.83
2019-05-11T03:57:41.710Z,2.70
2019-05-11T04:00:11.666Z,2.43
2019-05-11T04:02:41.060Z,2.50
2019-05-11T04:05:10.565Z,2.53
2019-05-11T04:07:39.944Z,2.40
2019-05-11T04:10:10.493Z,2.97
2019-05-11T04:12:39.881Z,2.57
2019-05-11T04:15:10.448Z,2.40
2019-05-11T04:17:39.844Z,2.30
2019-05-11T04:20:09.676Z,2.30
2019-05-11T04:22:39.123Z,2.13
2019-05-11T04:25:08.673Z,2.30
2019-05-11T04:27:38.110Z,2.10
2019-05-11T04:30:08.249Z,2.50
2019-05-11T04:32:37.644Z,2.57
2019-05-11T04:35:07.223Z,2.50
2019-05-11T04:37:36.650Z,2.53
2019-05-11T04:40:06.751Z,2.50
2019-05-11T04:42:53.518Z,2.70
2019-05-11T04:45:08.707Z,2.97
2019-05-11T04:47:38.111Z,2.60
2019-05-11T04:50:10.441Z,2.23
2019-05-11T04:52:39.827Z,2.20
2019-05-11T04:55:09.315Z,2.30
2019-05-11T04:57:38.727Z,2.07
2019-05-11T05:00:08.882Z,2.30
2019-05-11T05:02:38.279Z,2.23
2019-05-11T05:05:08.180Z,2.20
2019-05-11T05:07:48.152Z,2.50
2019-05-11T05:10:08.690Z,2.60
2019-05-11T05:12:38.084Z,2.27
2019-05-11T05:15:07.571Z,2.30
2019-05-11T05:17:36.961Z,2.00
2019-05-11T05:20:08.314Z,2.17
2019-05-11T05:22:37.764Z,1.80
2019-05-11T05:25:08.049Z,2.10
2019-05-11T05:27:37.447Z,2.60
2019-05-11T05:30:07.591Z,2.20
2019-05-11T05:32:37.134Z,1.97
2019-05-11T05:35:06.976Z,2.47
2019-05-11T05:37:36.537Z,2.47
2019-05-11T05:40:06.185Z,2.53
2019-05-11T05:42:35.578Z,2.17
2019-05-11T05:45:06.937Z,2.43
2019-05-11T05:47:36.331Z,2.40
2019-05-11T05:50:07.440Z,1.83
2019-05-11T05:52:36.970Z,1.50
2019-05-11T05:55:06.960Z,1.90
2019-05-11T05:57:36.341Z,1.77
2019-05-11T06:00:06.173Z,1.60
2019-05-11T06:02:35.870Z,1.53
2019-05-11T06:05:07.243Z,1.50
2019-05-11T06:07:36.665Z,1.73
2019-05-11T06:10:09.215Z,1.60
2019-05-11T06:12:38.612Z,1.73
2019-05-11T06:15:08.660Z,1.60
2019-05-11T06:17:38.061Z,1.33
2019-05-11T06:20:08.548Z,1.40
2019-05-11T06:22:38.331Z,1.40
2019-05-11T06:25:08.213Z,1.00
2019-05-11T06:27:37.687Z,1.37
2019-05-11T06:30:08.033Z,1.30
2019-05-11T06:32:37.450Z,1.00
2019-05-11T06:35:07.689Z,1.40
2019-05-11T06:37:37.124Z,0.93
2019-05-11T06:40:07.651Z,1.27
2019-05-11T06:42:37.077Z,1.20
2019-05-11T06:45:07.118Z,1.17
2019-05-11T06:47:36.548Z,1.10
2019-05-11T06:50:06.444Z,1.20
2019-05-11T06:52:35.930Z,0.70
2019-05-11T06:55:05.580Z,1.00
2019-05-11T06:57:34.990Z,0.80
2019-05-11T07:00:05.531Z,0.70
2019-05-11T07:02:35.903Z,0.80
2019-05-11T07:05:08.035Z,1.00
2019-05-11T07:07:46.932Z,1.10
2019-05-11T07:10:09.487Z,0.90
2019-05-11T07:12:38.906Z,0.90
2019-05-11T07:15:09.325Z,0.70
2019-05-11T07:17:38.748Z,0.30
2019-05-11T07:20:08.488Z,0.33
2019-05-11T07:22:37.908Z,0.43
2019-05-11T07:25:08.239Z,0.40
2019-05-11T07:27:37.656Z,0.30
2019-05-11T07:30:07.586Z,0.30
2019-05-11T07:32:38.081Z,0.30
2019-05-11T07:35:08.560Z,0.30
2019-05-11T07:37:38.602Z,0.20
2019-05-11T07:40:08.932Z,0.30
2019-05-11T07:42:38.403Z,0.30
2019-05-11T07:45:09.096Z,0.30
2019-05-11T07:47:38.757Z,0.20
2019-05-11T07:50:09.189Z,0.23
2019-05-11T07:52:38.626Z,0.30
2019-05-11T07:55:08.832Z,0.30
2019-05-11T07:57:39.290Z,0.30
2019-05-11T08:00:09.186Z,0.30
2019-05-11T08:02:39.051Z,0.30
2019-05-11T08:05:08.967Z,0.43
2019-05-11T08:07:38.497Z,0.27
2019-05-11T08:10:08.494Z,0.30
2019-05-11T08:12:39.200Z,0.40
2019-05-11T08:15:13.183Z,0.30
2019-05-11T08:17:40.411Z,0.30
2019-05-11T08:20:10.756Z,0.40
2019-05-11T08:22:40.181Z,0.40
2019-05-11T08:25:09.583Z,0.43
2019-05-11T08:27:39.023Z,0.40
2019-05-11T08:30:12.493Z,0.50
2019-05-11T08:32:42.348Z,0.50
2019-05-11T08:35:11.817Z,0.50
2019-05-11T08:37:41.230Z,0.33
2019-05-11T08:40:10.895Z,0.33
2019-05-11T08:42:40.312Z,0.40
2019-05-11T08:45:20.494Z,0.27
2019-05-11T08:47:41.085Z,0.40
2019-05-11T08:50:10.717Z,0.40
2019-05-11T08:52:40.143Z,0.53
2019-05-11T08:55:09.979Z,0.50
2019-05-11T08:57:39.440Z,0.60
2019-05-11T09:00:13.729Z,0.30
2019-05-11T09:02:46.685Z,0.40
2019-05-11T09:05:14.953Z,0.70
2019-05-11T09:07:44.455Z,0.50
2019-05-11T09:10:14.298Z,0.50
2019-05-11T09:12:43.711Z,0.40
2019-05-11T09:15:28.138Z,0.40
2019-05-11T09:17:44.724Z,0.43
2019-05-11T09:20:14.668Z,0.50
2019-05-11T09:22:44.091Z,0.40
2019-05-11T09:27:49.814Z,0.47
2019-05-11T09:30:19.559Z,0.40
2019-05-11T09:32:48.980Z,0.40
2019-05-11T09:35:19.060Z,0.30
2019-05-11T09:37:48.720Z,0.30
2019-05-11T09:40:18.646Z,0.50
2019-05-11T09:42:48.176Z,0.43
2019-05-11T09:45:18.747Z,0.30
2019-05-11T09:47:48.485Z,0.30
2019-05-11T09:50:18.194Z,0.40
2019-05-11T09:52:48.980Z,0.30
2019-05-11T09:55:19.141Z,0.30
2019-05-11T09:57:48.970Z,0.30
2019-05-11T10:00:19.196Z,0.30
2019-05-11T10:02:48.986Z,0.20
2019-05-11T10:05:22.073Z,0.40
2019-05-11T10:07:53.068Z,0.30
2019-05-11T10:10:22.481Z,0.40
2019-05-11T10:12:52.951Z,0.40
2019-05-11T10:15:22.471Z,0.50
2019-05-11T10:17:51.860Z,0.50
2019-05-11T10:20:21.343Z,0.33
2019-05-11T10:22:50.746Z,0.20
2019-05-11T10:25:20.156Z,0.40
2019-05-11T10:27:49.547Z,0.30
2019-05-11T10:30:19.312Z,0.30
2019-05-11T10:32:49.076Z,0.30
2019-05-11T10:35:18.658Z,0.40
2019-05-11T10:37:48.073Z,0.40
2019-05-11T10:40:19.030Z,0.50
2019-05-11T10:42:48.660Z,0.60
2019-05-11T10:45:18.290Z,0.60
2019-05-11T10:47:49.002Z,0.40
2019-05-11T10:50:18.988Z,0.40
2019-05-11T10:52:48.655Z,0.30
2019-05-11T10:55:19.406Z,0.30
2019-05-11T10:57:49.069Z,0.20
2019-05-11T11:00:19.423Z,0.30
2019-05-11T11:02:48.835Z,0.23
2019-05-11T11:05:18.913Z,0.30
2019-05-11T11:07:48.672Z,0.20
2019-05-11T11:10:18.443Z,0.60
2019-05-11T11:12:49.016Z,0.70
2019-05-11T11:15:18.899Z,0.70
2019-05-11T11:17:48.682Z,0.60
2019-05-11T11:20:18.758Z,0.60
2019-05-11T11:22:48.533Z,0.50
2019-05-11T11:25:18.396Z,0.40
2019-05-11T11:27:48.736Z,0.40
2019-05-11T11:30:18.845Z,0.50
2019-05-11T11:32:48.478Z,0.50
2019-05-11T11:35:18.708Z,0.40
2019-05-11T11:37:48.346Z,0.50
2019-05-11T11:40:18.360Z,0.30
2019-05-11T11:42:48.031Z,0.30
2019-05-11T11:45:18.431Z,0.27
2019-05-11T11:47:49.355Z,0.40
2019-05-11T11:50:19.069Z,0.63
2019-05-11T11:52:48.561Z,0.60
2019-05-11T11:55:18.773Z,0.70
2019-05-11T11:57:50.313Z,0.50
2019-05-11T12:00:20.209Z,0.40
2019-05-11T12:02:49.790Z,0.30
2019-05-11T12:05:19.212Z,0.40
2019-05-11T12:07:49.196Z,0.57
2019-05-11T12:10:19.440Z,0.70
2019-05-11T12:12:48.857Z,0.50
2019-05-11T12:15:18.444Z,0.67
2019-05-11T12:17:48.395Z,0.80
2019-05-11T12:20:18.375Z,0.80
2019-05-11T12:22:47.890Z,0.50
2019-05-11T12:25:18.609Z,0.40
2019-05-11T12:27:49.068Z,0.53
2019-05-11T12:30:18.960Z,0.43
2019-05-11T12:32:51.164Z,0.30
2019-05-11T12:35:20.718Z,0.40
2019-05-11T12:37:50.117Z,0.40
2019-05-11T12:40:20.071Z,0.40
2019-05-11T12:42:49.479Z,0.60
2019-05-11T12:45:19.144Z,0.40
2019-05-11T12:47:48.715Z,0.40
2019-05-11T12:50:20.172Z,0.40
2019-05-11T12:52:49.574Z,0.40
2019-05-11T12:55:19.568Z,0.30
2019-05-11T12:57:48.994Z,0.60
2019-05-11T13:00:18.651Z,0.53
2019-05-11T13:02:48.637Z,0.50
2019-05-11T13:05:18.315Z,0.70
2019-05-11T13:07:48.303Z,0.60
2019-05-11T13:10:18.069Z,0.50
2019-05-11T13:12:49.371Z,0.40
2019-05-11T13:15:19.001Z,0.70
2019-05-11T13:17:49.184Z,0.80
2019-05-11T13:20:18.854Z,0.90
2019-05-11T13:22:49.055Z,1.10
2019-05-11T13:25:18.531Z,1.00
2019-05-11T13:27:49.232Z,1.10
2019-05-11T13:30:18.898Z,0.73
2019-05-11T13:32:49.021Z,1.00
2019-05-11T13:35:18.702Z,0.70
2019-05-11T13:37:48.229Z,0.70
2019-05-11T13:40:18.648Z,1.00
2019-05-11T13:42:48.998Z,1.30
2019-05-11T13:45:18.707Z,1.10
2019-05-11T13:47:55.204Z,0.90
2019-05-11T13:50:19.306Z,0.90
2019-05-11T13:52:48.721Z,0.70
2019-05-11T13:55:18.393Z,1.10
2019-05-11T13:57:48.619Z,0.73
2019-05-11T14:00:18.348Z,0.60
2019-05-11T14:02:48.674Z,0.77
2019-05-11T14:05:18.332Z,1.03
2019-05-11T14:07:48.303Z,0.70
2019-05-11T14:10:18.396Z,0.90
2019-05-11T14:12:48.038Z,0.80
2019-05-11T14:15:18.863Z,0.70
2019-05-11T14:17:48.895Z,0.97
2019-05-11T14:20:19.848Z,0.60
2019-05-11T14:22:49.242Z,0.70
2019-05-11T14:25:18.945Z,0.73
2019-05-11T14:27:48.422Z,0.50
2019-05-11T14:30:19.077Z,0.60
2019-05-11T14:32:48.857Z,0.70
2019-05-11T14:35:19.016Z,0.43
2019-05-11T14:37:48.836Z,0.40
2019-05-11T14:40:18.313Z,0.30
2019-05-11T14:42:48.975Z,0.53
2019-05-11T14:45:18.983Z,0.70
2019-05-11T14:47:48.561Z,0.40
2019-05-11T14:50:18.862Z,0.40
2019-05-11T14:52:49.133Z,0.70
2019-05-11T14:55:18.927Z,0.87
2019-05-11T14:57:48.701Z,1.10
2019-05-11T15:00:18.846Z,1.07
2019-05-11T15:02:49.482Z,0.83
2019-05-11T15:05:20.997Z,0.97
2019-05-11T15:07:52.661Z,0.80
2019-05-11T15:10:21.654Z,0.70
2019-05-11T15:12:51.089Z,0.60
2019-05-11T15:15:20.723Z,0.57
2019-05-11T15:17:50.150Z,0.50
2019-05-11T15:20:19.877Z,0.60
2019-05-11T15:22:49.307Z,1.17
2019-05-11T15:25:19.613Z,0.70
2019-05-11T15:27:49.476Z,0.70
2019-05-11T15:30:20.298Z,0.77
2019-05-11T15:32:49.784Z,0.80
2019-05-11T15:35:19.259Z,0.70
2019-05-11T15:37:48.843Z,0.93
2019-05-11T15:40:19.362Z,1.00
2019-05-11T15:42:48.976Z,0.93
2019-05-11T15:45:19.283Z,1.10
2019-05-11T15:47:49.073Z,0.80
2019-05-11T15:50:19.431Z,1.10
2019-05-11T15:52:49.228Z,1.07
2019-05-11T15:55:20.179Z,1.10
2019-05-11T15:57:49.651Z,1.43
2019-05-11T16:00:19.602Z,1.50
2019-05-11T16:02:49.335Z,1.70
2019-05-11T16:05:20.263Z,1.97
2019-05-11T16:07:49.676Z,2.20
2019-05-11T16:10:19.371Z,2.10
2019-05-11T16:12:49.098Z,2.23
2019-05-11T16:15:19.630Z,2.30
2019-05-11T16:17:50.038Z,2.33
2019-05-11T16:20:19.863Z,3.00
2019-05-11T16:22:49.228Z,2.63
2019-05-11T16:25:19.785Z,2.47
2019-05-11T16:27:49.670Z,2.37
2019-05-11T16:30:21.672Z,2.50
2019-05-11T16:32:50.882Z,2.40
2019-05-11T16:35:20.592Z,2.80
2019-05-11T16:37:50.007Z,2.70
2019-05-11T16:40:20.949Z,2.77
2019-05-11T16:42:50.552Z,3.20
2019-05-11T16:45:23.556Z,3.53
2019-05-11T16:47:51.528Z,3.73
2019-05-11T16:50:20.934Z,3.37
2019-05-11T16:52:50.416Z,4.53
2019-05-11T16:55:19.833Z,4.13
2019-05-11T16:57:49.270Z,3.97
2019-05-11T17:00:19.008Z,4.60
2019-05-11T17:02:49.256Z,4.80
2019-05-11T17:05:26.645Z,5.30
2019-05-11T17:07:50.279Z,4.83
2019-05-11T17:10:24.030Z,5.40
2019-05-11T17:12:53.434Z,5.70
2019-05-11T17:15:22.854Z,6.03
2019-05-11T17:17:52.261Z,5.50
2019-05-11T17:20:21.750Z,5.50
2019-05-11T17:22:53.784Z,5.77
2019-05-11T17:25:22.252Z,5.53
2019-05-11T17:27:51.714Z,5.77
2019-05-11T17:30:21.611Z,5.07
2019-05-11T17:32:51.011Z,5.90
2019-05-11T17:35:20.525Z,6.10
2019-05-11T17:37:49.924Z,5.67
2019-05-11T17:40:23.383Z,5.90
2019-05-11T17:42:53.619Z,6.23
2019-05-11T17:45:21.745Z,7.10
2019-05-11T17:47:51.152Z,6.77
2019-05-11T17:50:20.614Z,7.63
2019-05-11T17:52:50.025Z,8.50
2019-05-11T17:55:19.437Z,8.20
2019-05-11T17:57:50.451Z,7.37
2019-05-11T18:00:20.448Z,7.33
2019-05-11T18:02:49.869Z,6.77
2019-05-11T18:05:19.417Z,8.00
2019-05-11T18:07:48.857Z,6.73
2019-05-11T18:10:18.729Z,9.07
2019-05-11T18:12:48.882Z,9.60
2019-05-11T18:15:19.227Z,11.90
2019-05-11T18:17:49.107Z,19.97
2019-05-11T18:20:22.017Z,12.57
2019-05-11T18:22:50.283Z,8.73
2019-05-11T18:25:19.701Z,8.17
2019-05-11T18:27:49.202Z,8.80
2019-05-11T18:30:18.764Z,9.30
2019-05-11T18:32:49.001Z,9.00
2019-05-11T18:35:19.594Z,9.20
2019-05-11T18:37:49.285Z,9.27
2019-05-11T18:40:19.110Z,9.00
2019-05-11T18:42:49.051Z,9.40
2019-05-11T18:45:19.123Z,10.27
2019-05-11T18:47:49.322Z,9.83
2019-05-11T18:50:29.855Z,9.77
2019-05-11T18:52:50.181Z,9.60
2019-05-11T18:55:19.615Z,10.43
2019-05-11T18:57:49.440Z,9.27
2019-05-11T19:00:19.560Z,9.30
2019-05-11T19:02:49.598Z,10.93
2019-05-11T19:05:19.238Z,10.13
2019-05-11T19:07:48.646Z,10.30
2019-05-11T19:10:18.302Z,10.07
2019-05-11T19:12:48.787Z,11.63
2019-05-11T19:15:19.349Z,10.57
2019-05-11T19:17:49.359Z,10.73
2019-05-11T19:20:20.509Z,10.63
2019-05-11T19:22:49.913Z,11.87
2019-05-11T19:25:19.335Z,12.30
2019-05-11T19:27:50.751Z,10.60
2019-05-11T19:30:20.230Z,10.83
2019-05-11T19:32:49.652Z,11.53
2019-05-11T19:35:21.102Z,11.43
2019-05-11T19:37:50.195Z,11.93
2019-05-11T19:40:19.698Z,12.83
2019-05-11T19:42:53.988Z,14.13
2019-05-11T19:45:23.896Z,13.17
2019-05-11T19:47:53.303Z,12.67
2019-05-11T19:50:22.741Z,13.37
2019-05-11T19:52:52.156Z,18.97
2019-05-11T19:55:21.599Z,18.07
2019-05-11T19:57:51.023Z,75.03
2019-05-11T20:00:20.784Z,25.40
2019-05-11T20:02:50.191Z,18.33
2019-05-11T20:05:19.630Z,16.83
2019-05-11T20:07:49.158Z,16.60
2019-05-11T20:10:19.168Z,15.93
2019-05-11T20:12:48.869Z,24.03
2019-05-11T20:15:19.059Z,28.60
2019-05-11T20:17:49.133Z,17.67
2019-05-11T20:20:18.986Z,14.60
2019-05-11T20:22:48.937Z,16.83
2019-05-11T20:25:19.310Z,16.67
2019-05-11T20:27:49.187Z,23.40
2019-05-11T20:30:19.283Z,22.77
2019-05-11T20:32:49.382Z,22.57
2019-05-11T20:35:19.036Z,17.20
2019-05-11T20:37:48.447Z,17.33
2019-05-11T20:40:18.430Z,17.60
2019-05-11T20:42:48.678Z,21.10
2019-05-11T20:45:19.008Z,19.90
2019-05-11T20:47:49.010Z,18.20
2019-05-11T20:50:18.878Z,16.87
2019-05-11T20:52:48.753Z,16.60
2019-05-11T20:55:18.597Z,17.90
2019-05-11T20:57:48.688Z,17.60
2019-05-11T21:00:19.528Z,16.73
2019-05-11T21:02:49.253Z,17.83
2019-05-11T21:05:18.828Z,18.17
2019-05-11T21:07:48.342Z,17.97
2019-05-11T21:10:17.987Z,18.80
2019-05-11T21:12:47.410Z,17.30
2019-05-11T21:15:18.098Z,18.60
2019-05-11T21:17:50.216Z,17.23
2019-05-11T21:20:18.773Z,18.57
2019-05-11T21:22:48.844Z,19.63
2019-05-11T21:25:18.539Z,19.37
2019-05-11T21:27:48.709Z,32.77
2019-05-11T21:30:18.752Z,73.90
2019-05-11T21:32:48.292Z,43.50
2019-05-11T21:35:19.272Z,25.27
2019-05-11T21:37:48.977Z,21.97
2019-05-11T21:40:18.485Z,18.77
2019-05-11T21:42:47.912Z,19.33
2019-05-11T21:45:18.423Z,20.50
2019-05-11T21:47:48.983Z,19.80
2019-05-11T21:50:19.260Z,19.20
2019-05-11T21:52:48.841Z,31.87
2019-05-11T21:55:18.251Z,38.90
2019-05-11T21:57:49.854Z,40.03
2019-05-11T22:00:19.515Z,36.23
2019-05-11T22:02:48.999Z,37.97
2019-05-11T22:05:20.945Z,84.43
2019-05-11T22:07:49.557Z,28.70
2019-05-11T22:10:19.797Z,21.90
2019-05-11T22:12:49.233Z,21.77
2019-05-11T22:15:18.873Z,23.97
2019-05-11T22:17:48.294Z,20.33
2019-05-11T22:20:18.437Z,28.73
2019-05-11T22:22:48.002Z,35.63
2019-05-11T22:25:18.253Z,24.93
2019-05-11T22:27:48.748Z,22.87
2019-05-11T22:30:18.807Z,23.03
2019-05-11T22:32:48.260Z,21.60
2019-05-11T22:35:18.475Z,21.03
2019-05-11T22:37:49.099Z,39.53
2019-05-11T22:40:18.913Z,23.50
2019-05-11T22:42:48.336Z,21.70
2019-05-11T22:45:18.614Z,23.47
2019-05-11T22:47:48.340Z,24.77
2019-05-11T22:50:18.719Z,22.40
2019-05-11T22:52:48.578Z,20.10
2019-05-11T22:55:18.918Z,21.07
2019-05-11T22:57:48.795Z,19.57
2019-05-11T23:00:21.280Z,20.77
2019-05-11T23:02:50.681Z,21.13
2019-05-11T23:05:20.097Z,20.80
2019-05-11T23:07:49.501Z,19.87
2019-05-11T23:10:18.902Z,19.97
2019-05-11T23:12:49.898Z,21.03
2019-05-11T23:15:19.474Z,21.63
2019-05-11T23:17:48.878Z,23.30
2019-05-11T23:20:18.631Z,20.57
2019-05-11T23:22:57.018Z,20.97
2019-05-11T23:25:19.669Z,21.50
2019-05-11T23:27:49.195Z,21.57
2019-05-11T23:30:20.110Z,23.47
2019-05-11T23:32:50.083Z,21.63
2019-05-11T23:35:19.524Z,19.97
2019-05-11T23:37:50.002Z,19.97
2019-05-11T23:40:20.548Z,19.70
2019-05-11T23:42:50.015Z,20.40
2019-05-11T23:45:19.562Z,22.03
2019-05-11T23:47:49.268Z,21.67
2019-05-11T23:50:19.455Z,20.50
2019-05-11T23:53:04.181Z,21.23
2019-05-11T23:55:20.514Z,17.30
2019-05-11T23:57:49.950Z,17.80
